Terminal Aerodrome Forecast
Issued by NWS Louisville, KY

Home | Current Version | Previous Version | Text Only | Print | Product List | Glossary On
Versions: 1 2 3 4 5 6 7 8 9 10 11 12 13 14 15 16 17 18 19
000
FTUS43 KLMK 290500
TAFBWG
TAF
KBWG 290526Z 2906/3006 01003KT 5SM BR OVC005
     FM291300 03005KT P6SM OVC012
     FM291800 02006KT P6SM BKN025 BKN200
     FM300000 02005KT P6SM FEW150=

USA.gov is the U.S. government's official web portal to all federal, state and local government web resources and services.